Terminal Aerodrome Forecast
Issued by NWS

Home | Current Version | Previous Version | Text Only | Print | Product List | Glossary Off
Versions: 1 2 3 4 5 6 7 8 9 10 11 12 13 14 15 16 17 18 19 20

000
FTUS43 KPAH 302000 AAA
TAFCGI
TAF AMD
KCGI 302021Z 3020/3118 20005KT P6SM VCSH SCT015 BKN050
      TEMPO 3020/3022 3SM SHRA BR BKN025
     FM310000 18005KT P6SM SCT025 BKN080
     FM310600 17004KT 6SM BR BKN010
     FM311500 23005KT P6SM BKN030=

USA.gov is the U.S. government's official web portal to all federal, state and local government web resources and services.